Terminal Aerodrome Forecast
Issued by NWS Blacksburg, VA

Home | Current Version | Previous Version | Text Only | Print | Product List | Glossary On
Versions: 1 2 3 4 5 6 7 8 9 10 11 12 13 14 15 16 17 18 19 20 21 22 23 24 25 26
000
FTUS41 KRNK 252340
TAFROA
TAF
KROA 252340Z 2600/2624 27003KT P6SM VCSH SCT060 BKN100 OVC250
     FM260200 VRB03KT P6SM SCT100 BKN250
     FM261500 27005KT P6SM SCT045 BKN250
     FM261900 24006KT P6SM VCTS BKN050CB=

USA.gov is the U.S. government's official web portal to all federal, state and local government web resources and services.